Time;durP1;ratioP1;P1;durP2;ratioP2;P2;SDS_P1;SDS_P2;PMS_P1;PMS_P2;Temp;Humidity;BMP_temperature;BMP_pressure;BME280_temperature;BME280_humidity;BME280_pressure;Samples;Min_cycle;Max_cycle;Signal;HPM_P1;HPM_P2
2023/08/19 00:01:42;;;;;;;9.47;8.77;;;;;;;;;;6156371;23;20410;-61
2023/08/19 00:04:09;;;;;;;10.80;10.00;;;;;;;;;;6156474;23;20442;-61
2023/08/19 00:06:38;;;;;;;9.73;9.03;;;;;;;;;;6156153;23;20497;-65
2023/08/19 00:09:06;;;;;;;9.00;8.27;;;;;;;;;;6156234;23;20457;-61
2023/08/19 00:11:33;;;;;;;9.80;8.90;;;;;;;;;;6156250;23;20498;-61
2023/08/19 00:14:00;;;;;;;9.50;8.80;;;;;;;;;;6156270;23;20406;-61
2023/08/19 00:16:28;;;;;;;10.17;9.37;;;;;;;;;;6156309;23;20414;-61
2023/08/19 00:18:55;;;;;;;9.63;8.93;;;;;;;;;;6156108;23;20782;-61
2023/08/19 00:21:22;;;;;;;10.07;9.27;;;;;;;;;;6156256;23;20411;-61
2023/08/19 00:23:49;;;;;;;9.50;8.67;;;;;;;;;;6156324;23;20505;-61
2023/08/19 00:26:16;;;;;;;8.83;8.23;;;;;;;;;;6156206;23;20414;-61
2023/08/19 00:28:43;;;;;;;9.20;8.47;;;;;;;;;;6156265;23;20949;-61
2023/08/19 00:31:10;;;;;;;9.17;8.07;;;;;;;;;;6156261;23;20493;-61
2023/08/19 00:33:38;;;;;;;9.87;9.07;;;;;;;;;;6155842;23;20987;-61
2023/08/19 00:36:05;;;;;;;10.57;9.77;;;;;;;;;;6155640;23;21029;-61
2023/08/19 00:38:32;;;;;;;12.87;9.53;;;;;;;;;;6156157;23;20490;-61
2023/08/19 00:40:59;;;;;;;10.30;9.40;;;;;;;;;;6156192;23;20407;-61
2023/08/19 00:43:26;;;;;;;9.50;8.80;;;;;;;;;;6156234;23;20551;-61
2023/08/19 00:45:53;;;;;;;9.13;8.50;;;;;;;;;;6155702;23;20965;-61
2023/08/19 00:48:21;;;;;;;9.60;8.90;;;;;;;;;;6156209;23;20434;-61
2023/08/19 00:50:50;;;;;;;10.33;9.40;;;;;;;;;;6155794;23;20461;-61
2023/08/19 00:53:17;;;;;;;9.40;8.60;;;;;;;;;;6155925;23;20486;-61
2023/08/19 00:55:44;;;;;;;13.13;10.40;;;;;;;;;;6156043;23;20529;-61
2023/08/19 00:58:11;;;;;;;10.87;9.77;;;;;;;;;;6156065;23;20407;-61
2023/08/19 01:00:39;;;;;;;10.33;9.60;;;;;;;;;;6156351;23;20438;-61
2023/08/19 01:03:07;;;;;;;10.70;9.80;;;;;;;;;;6155931;23;20493;-62
2023/08/19 01:05:39;;;;;;;10.80;9.77;;;;;;;;;;6155990;23;20418;-61
2023/08/19 01:08:09;;;;;;;11.33;10.23;;;;;;;;;;6165768;23;20482;-61
2023/08/19 01:10:38;;;;;;;11.80;10.90;;;;;;;;;;6155840;23;20515;-61
2023/08/19 01:13:10;;;;;;;11.60;10.50;;;;;;;;;;6155859;23;20414;-61
2023/08/19 01:15:38;;;;;;;10.67;9.73;;;;;;;;;;6166859;23;20525;-61
2023/08/19 01:18:07;;;;;;;10.20;9.40;;;;;;;;;;6157888;23;20493;-61
2023/08/19 01:20:34;;;;;;;11.10;10.10;;;;;;;;;;6157800;23;20489;-61
2023/08/19 01:23:01;;;;;;;10.90;10.00;;;;;;;;;;6157925;23;20490;-61
2023/08/19 01:25:30;;;;;;;10.40;9.50;;;;;;;;;;6157798;23;20724;-61
2023/08/19 01:27:57;;;;;;;11.13;10.20;;;;;;;;;;6157767;23;20439;-61
2023/08/19 01:30:25;;;;;;;10.73;9.93;;;;;;;;;;6157938;23;20490;-61
2023/08/19 01:32:52;;;;;;;10.67;9.87;;;;;;;;;;6157762;23;20411;-61
2023/08/19 01:35:19;;;;;;;10.33;9.37;;;;;;;;;;6157382;23;20573;-61
2023/08/19 01:37:48;;;;;;;11.50;10.57;;;;;;;;;;6157759;23;20457;-61
2023/08/19 01:40:15;;;;;;;10.77;9.97;;;;;;;;;;6157573;23;20406;-61
2023/08/19 01:42:44;;;;;;;10.77;9.87;;;;;;;;;;6157690;23;20798;-61
2023/08/19 01:45:11;;;;;;;13.13;9.80;;;;;;;;;;6157612;23;20494;-61
2023/08/19 01:47:38;;;;;;;10.63;9.83;;;;;;;;;;6157711;23;20407;-61
2023/08/19 01:50:05;;;;;;;10.77;9.93;;;;;;;;;;6157403;23;20454;-61
2023/08/19 01:52:33;;;;;;;11.50;10.60;;;;;;;;;;6157670;23;20489;-61
2023/08/19 01:55:00;;;;;;;11.33;10.43;;;;;;;;;;6157512;23;20804;-61
2023/08/19 01:57:27;;;;;;;10.77;9.90;;;;;;;;;;6157617;23;20446;-61
2023/08/19 01:59:56;;;;;;;10.83;9.97;;;;;;;;;;6157617;23;20440;-61
2023/08/19 02:02:23;;;;;;;10.10;9.23;;;;;;;;;;6157384;23;20772;-62
2023/08/19 02:04:50;;;;;;;10.10;9.23;;;;;;;;;;6157557;23;20493;-61
2023/08/19 02:07:17;;;;;;;11.30;10.30;;;;;;;;;;6157514;23;20494;-61
2023/08/19 02:09:45;;;;;;;10.50;9.53;;;;;;;;;;6157587;23;20772;-61
2023/08/19 02:12:12;;;;;;;11.03;10.13;;;;;;;;;;6157341;23;20720;-61
2023/08/19 02:14:39;;;;;;;10.20;9.20;;;;;;;;;;6157292;23;20486;-61
2023/08/19 02:17:08;;;;;;;9.60;8.80;;;;;;;;;;6157461;23;20819;-61
2023/08/19 02:19:35;;;;;;;10.63;9.67;;;;;;;;;;6157530;23;20494;-61
2023/08/19 02:22:02;;;;;;;10.43;9.53;;;;;;;;;;6157444;23;20439;-61
2023/08/19 02:24:29;;;;;;;10.63;9.83;;;;;;;;;;6157367;23;20406;-61
2023/08/19 02:26:56;;;;;;;9.90;9.20;;;;;;;;;;6156805;23;20489;-61
2023/08/19 02:29:23;;;;;;;10.87;9.97;;;;;;;;;;6157397;23;20507;-61
2023/08/19 02:31:49;;;;;;;10.53;9.83;;;;;;;;;;6157382;23;20403;-61
2023/08/19 02:34:18;;;;;;;10.57;9.77;;;;;;;;;;6157313;23;20749;-61
2023/08/19 02:36:45;;;;;;;10.60;9.70;;;;;;;;;;6157086;23;20486;-61
2023/08/19 02:39:12;;;;;;;9.67;8.87;;;;;;;;;;6157212;23;20434;-61
2023/08/19 02:41:39;;;;;;;13.60;9.13;;;;;;;;;;6157157;23;20410;-61
2023/08/19 02:44:06;;;;;;;11.57;10.67;;;;;;;;;;6156848;23;20958;-61
2023/08/19 02:46:33;;;;;;;10.00;9.20;;;;;;;;;;6157259;23;20407;-61
2023/08/19 02:49:00;;;;;;;11.00;10.20;;;;;;;;;;6156887;23;20407;-61
2023/08/19 02:51:28;;;;;;;10.80;9.83;;;;;;;;;;6166883;23;20429;-61
2023/08/19 02:53:55;;;;;;;10.47;9.67;;;;;;;;;;6157221;23;20498;-62
2023/08/19 02:56:22;;;;;;;10.97;10.07;;;;;;;;;;6157068;23;20517;-61
2023/08/19 02:58:49;;;;;;;10.57;9.73;;;;;;;;;;6157138;23;20413;-60
2023/08/19 03:01:15;;;;;;;9.77;9.00;;;;;;;;;;6156638;23;21258;-62
2023/08/19 03:03:44;;;;;;;11.67;10.30;;;;;;;;;;6157093;23;20494;-61
2023/08/19 03:06:11;;;;;;;12.03;10.90;;;;;;;;;;6156803;23;20457;-61
2023/08/19 03:08:39;;;;;;;10.90;10.00;;;;;;;;;;6157082;23;20809;-61
2023/08/19 03:11:06;;;;;;;10.87;10.07;;;;;;;;;;6156858;23;20438;-61
2023/08/19 03:13:33;;;;;;;10.73;9.83;;;;;;;;;;6156632;23;20490;-61
2023/08/19 03:16:00;;;;;;;11.07;10.13;;;;;;;;;;6156370;23;20530;-61
2023/08/19 03:18:27;;;;;;;10.83;10.03;;;;;;;;;;6156811;23;20538;-61
2023/08/19 03:20:57;;;;;;;10.30;9.50;;;;;;;;;;6157221;23;20497;-61
2023/08/19 03:23:25;;;;;;;11.03;10.10;;;;;;;;;;6156731;23;20482;-60
2023/08/19 03:25:53;;;;;;;11.30;10.10;;;;;;;;;;6156764;23;20414;-60
2023/08/19 03:28:20;;;;;;;9.87;8.87;;;;;;;;;;6156744;23;20489;-61
2023/08/19 03:30:47;;;;;;;11.93;10.60;;;;;;;;;;6156643;23;20705;-61
2023/08/19 03:33:14;;;;;;;10.23;9.33;;;;;;;;;;6156663;23;20497;-61
2023/08/19 03:35:41;;;;;;;10.97;10.10;;;;;;;;;;6156581;23;20514;-61
2023/08/19 03:38:08;;;;;;;10.83;10.03;;;;;;;;;;6156865;23;20493;-61
2023/08/19 03:40:35;;;;;;;10.77;9.97;;;;;;;;;;6156682;23;20544;-61
2023/08/19 03:43:04;;;;;;;10.73;10.03;;;;;;;;;;6156618;23;20435;-61
2023/08/19 03:45:32;;;;;;;11.37;10.37;;;;;;;;;;6156451;23;20414;-61
2023/08/19 03:48:00;;;;;;;11.10;9.83;;;;;;;;;;6156413;23;20587;-61
2023/08/19 03:50:27;;;;;;;10.53;9.73;;;;;;;;;;6156274;23;20431;-61
2023/08/19 03:52:53;;;;;;;11.17;10.17;;;;;;;;;;6156536;23;20485;-62
2023/08/19 03:55:20;;;;;;;10.00;9.20;;;;;;;;;;6156362;23;20407;-61
2023/08/19 03:57:47;;;;;;;10.10;9.23;;;;;;;;;;6156415;23;20442;-61
2023/08/19 04:00:16;;;;;;;11.30;10.50;;;;;;;;;;6156058;23;20489;-61
2023/08/19 04:02:43;;;;;;;11.83;10.63;;;;;;;;;;6156366;23;20464;-61
2023/08/19 04:05:10;;;;;;;11.27;10.37;;;;;;;;;;6156013;23;20492;-61
2023/08/19 04:07:37;;;;;;;10.17;9.47;;;;;;;;;;6156398;23;20490;-61
2023/08/19 04:10:05;;;;;;;11.23;10.30;;;;;;;;;;6156299;23;20407;-61
2023/08/19 04:12:32;;;;;;;13.07;11.80;;;;;;;;;;6156382;23;20429;-61
2023/08/19 04:14:58;;;;;;;12.37;11.37;;;;;;;;;;6156419;23;20489;-61
2023/08/19 04:17:27;;;;;;;12.97;11.57;;;;;;;;;;6156268;23;20534;-61
2023/08/19 04:19:54;;;;;;;12.27;11.27;;;;;;;;;;6156268;23;20493;-61
2023/08/19 04:22:22;;;;;;;12.70;11.67;;;;;;;;;;6155968;23;20928;-61
2023/08/19 04:24:50;;;;;;;11.50;10.60;;;;;;;;;;6156253;23;20407;-61
2023/08/19 04:27:17;;;;;;;12.40;11.23;;;;;;;;;;6156243;23;20722;-61
2023/08/19 04:29:44;;;;;;;12.63;11.33;;;;;;;;;;6156268;23;20494;-61
2023/08/19 04:32:11;;;;;;;11.60;10.77;;;;;;;;;;6156294;23;20461;-61
2023/08/19 04:34:40;;;;;;;11.23;10.23;;;;;;;;;;6156256;23;20490;-61
2023/08/19 04:37:08;;;;;;;13.37;12.17;;;;;;;;;;6156265;23;20471;-62
2023/08/19 04:39:37;;;;;;;13.10;12.10;;;;;;;;;;6156127;23;20465;-61
2023/08/19 04:42:04;;;;;;;12.37;11.27;;;;;;;;;;6156095;23;20402;-61
2023/08/19 04:44:31;;;;;;;13.53;11.13;;;;;;;;;;6156207;23;20413;-61
2023/08/19 04:46:58;;;;;;;12.93;11.93;;;;;;;;;;6156215;23;20403;-61
2023/08/19 04:49:25;;;;;;;14.10;12.77;;;;;;;;;;6155835;23;20434;-61
2023/08/19 04:51:53;;;;;;;14.50;13.10;;;;;;;;;;6165861;23;20744;-61
2023/08/19 04:54:20;;;;;;;12.10;11.00;;;;;;;;;;6155969;23;20800;-62
2023/08/19 04:56:48;;;;;;;13.67;12.37;;;;;;;;;;6156058;23;20485;-61
2023/08/19 04:59:15;;;;;;;13.20;12.10;;;;;;;;;;6156020;23;20719;-61
2023/08/19 05:01:42;;;;;;;12.47;11.43;;;;;;;;;;6156091;23;20413;-60
2023/08/19 05:04:09;;;;;;;15.13;12.70;;;;;;;;;;6156006;23;20796;-61
2023/08/19 05:06:36;;;;;;;13.00;11.90;;;;;;;;;;6156071;23;20490;-61
2023/08/19 05:09:04;;;;;;;14.60;13.10;;;;;;;;;;6156034;23;20494;-61
2023/08/19 05:11:31;;;;;;;12.53;11.47;;;;;;;;;;6155971;23;20775;-61
2023/08/19 05:13:58;;;;;;;13.43;12.33;;;;;;;;;;6156036;23;20446;-61
2023/08/19 05:16:25;;;;;;;12.93;11.83;;;;;;;;;;6155904;23;20431;-61
2023/08/19 05:19:04;;;;;;;13.57;12.57;;;;;;;;;;6156033;23;20407;-61
2023/08/19 05:21:31;;;;;;;13.47;12.27;;;;;;;;;;6165760;23;20474;-61
2023/08/19 05:23:57;;;;;;;15.03;12.70;;;;;;;;;;6155955;23;20925;-61
2023/08/19 05:26:26;;;;;;;13.40;12.27;;;;;;;;;;6165348;23;20739;-61
2023/08/19 05:28:52;;;;;;;13.70;12.60;;;;;;;;;;6155907;23;20431;-61
2023/08/19 05:31:19;;;;;;;13.73;12.53;;;;;;;;;;6155952;23;20486;-61
2023/08/19 05:33:46;;;;;;;17.57;14.40;;;;;;;;;;6155971;23;20485;-61
2023/08/19 05:36:13;;;;;;;13.20;12.07;;;;;;;;;;6155910;23;20832;-61
2023/08/19 05:38:40;;;;;;;14.73;13.50;;;;;;;;;;6155883;23;20439;-61
2023/08/19 05:41:07;;;;;;;13.23;12.23;;;;;;;;;;6155922;23;20490;-61
2023/08/19 05:43:35;;;;;;;14.60;13.47;;;;;;;;;;6155458;23;20945;-61
2023/08/19 05:46:04;;;;;;;16.67;14.53;;;;;;;;;;6155658;23;20793;-61
2023/08/19 05:48:31;;;;;;;15.40;14.10;;;;;;;;;;6155664;23;20826;-61
2023/08/19 05:50:58;;;;;;;13.50;12.50;;;;;;;;;;6155342;23;20510;-61
2023/08/19 05:53:25;;;;;;;15.20;13.77;;;;;;;;;;6155817;23;20490;-61
2023/08/19 05:55:52;;;;;;;15.30;14.10;;;;;;;;;;6155793;23;20906;-61
2023/08/19 05:58:19;;;;;;;15.63;14.40;;;;;;;;;;6155840;23;20486;-61
2023/08/19 06:00:47;;;;;;;14.07;12.90;;;;;;;;;;6156205;23;20411;-60
2023/08/19 06:03:16;;;;;;;14.73;13.53;;;;;;;;;;6157447;23;20460;-61
2023/08/19 06:05:43;;;;;;;13.20;12.10;;;;;;;;;;6157732;23;20407;-61
2023/08/19 06:08:12;;;;;;;15.17;13.90;;;;;;;;;;6157427;23;20442;-61
2023/08/19 06:10:43;;;;;;;13.20;12.10;;;;;;;;;;6157391;23;20407;-61
2023/08/19 06:13:10;;;;;;;14.87;13.17;;;;;;;;;;6166767;23;20878;-61
2023/08/19 06:15:37;;;;;;;14.10;12.90;;;;;;;;;;6157428;23;20407;-61
2023/08/19 06:18:06;;;;;;;14.13;13.03;;;;;;;;;;6157277;23;20822;-61
2023/08/19 06:20:33;;;;;;;14.73;13.43;;;;;;;;;;6157231;23;20797;-61
2023/08/19 06:23:02;;;;;;;15.00;13.70;;;;;;;;;;6157452;23;20438;-61
2023/08/19 06:25:28;;;;;;;13.80;12.70;;;;;;;;;;6157191;23;20410;-61
2023/08/19 06:27:55;;;;;;;24.73;14.70;;;;;;;;;;6157418;23;20494;-61
2023/08/19 06:30:22;;;;;;;14.50;13.13;;;;;;;;;;6157326;23;20494;-61
2023/08/19 06:32:49;;;;;;;14.03;12.63;;;;;;;;;;6157400;23;20788;-61
2023/08/19 06:35:18;;;;;;;14.00;12.70;;;;;;;;;;6157321;23;20486;-61
2023/08/19 06:37:48;;;;;;;13.73;12.67;;;;;;;;;;6157062;23;20522;-61
2023/08/19 06:40:18;;;;;;;14.27;12.83;;;;;;;;;;6156972;23;20497;-61
2023/08/19 06:42:47;;;;;;;15.03;13.93;;;;;;;;;;6157451;23;20951;-61
2023/08/19 06:45:15;;;;;;;15.80;14.33;;;;;;;;;;6157002;23;20494;-61
2023/08/19 06:47:45;;;;;;;15.67;14.33;;;;;;;;;;6156993;23;20402;-61
2023/08/19 06:50:14;;;;;;;13.53;12.33;;;;;;;;;;6156708;23;20795;-61
2023/08/19 06:52:43;;;;;;;14.60;13.13;;;;;;;;;;6157046;23;20489;-61
2023/08/19 06:55:11;;;;;;;14.10;12.90;;;;;;;;;;6157019;23;20510;-62
2023/08/19 06:57:40;;;;;;;15.07;13.70;;;;;;;;;;6157028;23;20474;-61
2023/08/19 07:00:08;;;;;;;15.00;13.70;;;;;;;;;;6156832;23;20490;-61
2023/08/19 07:02:36;;;;;;;14.07;12.97;;;;;;;;;;6156850;23;20407;-61
2023/08/19 07:05:05;;;;;;;14.17;12.97;;;;;;;;;;6156948;23;20764;-61
2023/08/19 07:07:34;;;;;;;15.90;14.37;;;;;;;;;;6156539;23;20407;-61
2023/08/19 07:10:05;;;;;;;14.50;13.10;;;;;;;;;;6157019;23;20438;-61
2023/08/19 07:12:33;;;;;;;15.80;14.40;;;;;;;;;;6166305;23;20759;-61
2023/08/19 07:15:01;;;;;;;15.20;14.00;;;;;;;;;;6156295;23;20970;-61
2023/08/19 07:17:29;;;;;;;15.43;14.33;;;;;;;;;;6156562;23;20834;-61
2023/08/19 07:19:56;;;;;;;15.90;14.70;;;;;;;;;;6156673;23;20497;-61
2023/08/19 07:22:24;;;;;;;15.90;14.50;;;;;;;;;;6156657;23;20489;-61
2023/08/19 07:24:52;;;;;;;15.60;14.20;;;;;;;;;;6156592;23;20522;-61
2023/08/19 07:27:22;;;;;;;14.20;13.00;;;;;;;;;;6156708;23;20411;-61
2023/08/19 07:29:51;;;;;;;15.10;13.70;;;;;;;;;;6166645;23;20395;-60
2023/08/19 07:32:19;;;;;;;14.50;13.30;;;;;;;;;;6156471;23;20406;-61
2023/08/19 07:34:46;;;;;;;14.37;13.07;;;;;;;;;;6156609;23;20494;-62
2023/08/19 07:37:13;;;;;;;15.07;13.87;;;;;;;;;;6156629;23;20530;-61
2023/08/19 07:39:40;;;;;;;13.53;12.47;;;;;;;;;;6156732;23;20810;-61
2023/08/19 07:42:07;;;;;;;13.73;12.63;;;;;;;;;;6156563;23;20407;-61
2023/08/19 07:44:35;;;;;;;13.83;12.63;;;;;;;;;;6156229;23;20439;-61
2023/08/19 07:47:02;;;;;;;13.70;12.70;;;;;;;;;;6156140;23;20501;-61
2023/08/19 07:49:28;;;;;;;12.73;11.67;;;;;;;;;;6156212;23;20827;-61
2023/08/19 07:51:55;;;;;;;14.83;13.43;;;;;;;;;;6156582;23;20498;-61
2023/08/19 07:54:22;;;;;;;14.60;13.30;;;;;;;;;;6156786;23;20486;-61
2023/08/19 07:56:51;;;;;;;13.60;12.40;;;;;;;;;;6156420;23;20487;-61
2023/08/19 07:59:18;;;;;;;12.97;11.93;;;;;;;;;;6156349;23;20407;-61
2023/08/19 08:01:47;;;;;;;12.83;11.83;;;;;;;;;;6156353;23;20391;-61
2023/08/19 08:04:14;;;;;;;13.00;12.07;;;;;;;;;;6156461;23;20494;-61
2023/08/19 08:06:42;;;;;;;13.27;12.07;;;;;;;;;;6156411;23;20403;-61
2023/08/19 08:09:09;;;;;;;12.60;11.40;;;;;;;;;;6156520;23;20431;-61
2023/08/19 08:11:36;;;;;;;13.30;12.00;;;;;;;;;;6156291;23;20469;-62
2023/08/19 08:14:03;;;;;;;12.80;11.77;;;;;;;;;;6156395;23;20403;-61
2023/08/19 08:16:30;;;;;;;10.50;9.70;;;;;;;;;;6156337;23;20493;-61
2023/08/19 08:18:58;;;;;;;11.20;10.40;;;;;;;;;;6156188;23;20526;-61
2023/08/19 08:21:25;;;;;;;11.30;10.50;;;;;;;;;;6156253;23;20489;-61
2023/08/19 08:23:54;;;;;;;11.80;11.00;;;;;;;;;;6155976;23;20443;-61
2023/08/19 08:26:21;;;;;;;11.70;10.80;;;;;;;;;;6155921;23;20414;-61
2023/08/19 08:28:48;;;;;;;12.17;10.97;;;;;;;;;;6156177;23;20418;-61
2023/08/19 08:31:15;;;;;;;11.27;10.47;;;;;;;;;;6156114;23;20902;-61
2023/08/19 08:33:42;;;;;;;11.90;11.00;;;;;;;;;;6156157;23;20501;-61
2023/08/19 08:36:10;;;;;;;12.60;11.30;;;;;;;;;;6156203;23;20555;-61
2023/08/19 08:38:37;;;;;;;11.57;10.77;;;;;;;;;;6155999;23;20525;-61
2023/08/19 08:41:05;;;;;;;11.67;10.53;;;;;;;;;;6155779;23;20978;-61
2023/08/19 08:43:35;;;;;;;11.00;9.80;;;;;;;;;;6155672;23;20435;-61
2023/08/19 08:46:02;;;;;;;10.43;9.57;;;;;;;;;;6165827;23;20779;-61
2023/08/19 08:48:30;;;;;;;9.57;8.97;;;;;;;;;;6156001;23;20418;-61
2023/08/19 08:50:58;;;;;;;10.70;9.90;;;;;;;;;;6155738;23;21000;-61
2023/08/19 08:53:27;;;;;;;10.53;9.53;;;;;;;;;;6155682;23;20969;-61
2023/08/19 08:55:54;;;;;;;10.70;9.90;;;;;;;;;;6155910;23;20792;-61
2023/08/19 08:58:21;;;;;;;9.37;8.67;;;;;;;;;;6155950;23;20881;-62
2023/08/19 09:00:49;;;;;;;9.33;8.53;;;;;;;;;;6156000;23;20438;-61
2023/08/19 09:03:18;;;;;;;10.10;9.30;;;;;;;;;;6156006;23;20489;-61
2023/08/19 09:05:45;;;;;;;9.60;9.00;;;;;;;;;;6155930;23;20772;-61
2023/08/19 09:08:17;;;;;;;11.13;9.50;;;;;;;;;;6155882;23;20434;-62
2023/08/19 09:10:47;;;;;;;10.20;9.50;;;;;;;;;;6165726;23;20395;-61
2023/08/19 09:13:16;;;;;;;10.03;9.30;;;;;;;;;;6155728;23;20434;-61
2023/08/19 09:15:43;;;;;;;10.90;8.03;;;;;;;;;;6155816;23;20494;-61
2023/08/19 09:18:10;;;;;;;8.70;8.10;;;;;;;;;;6155758;23;20611;-61
2023/08/19 09:20:38;;;;;;;9.33;8.67;;;;;;;;;;6155692;23;20407;-61
2023/08/19 09:23:06;;;;;;;9.50;8.70;;;;;;;;;;6155930;23;20765;-61
2023/08/19 09:25:33;;;;;;;9.90;8.93;;;;;;;;;;6155780;23;20775;-61
2023/08/19 09:28:01;;;;;;;8.93;8.30;;;;;;;;;;6155726;23;20457;-61
2023/08/19 09:30:32;;;;;;;9.23;8.53;;;;;;;;;;6155687;23;20407;-61
2023/08/19 09:32:59;;;;;;;9.57;8.97;;;;;;;;;;6165500;23;20477;-61
2023/08/19 09:35:26;;;;;;;9.63;8.83;;;;;;;;;;6155945;23;20414;-61
2023/08/19 09:37:53;;;;;;;10.57;9.87;;;;;;;;;;6157626;23;20513;-61
2023/08/19 09:40:22;;;;;;;9.53;8.80;;;;;;;;;;6157701;23;20407;-61
2023/08/19 09:42:50;;;;;;;9.43;8.73;;;;;;;;;;6157532;23;20494;-61
2023/08/19 09:45:22;;;;;;;10.47;9.67;;;;;;;;;;6157552;23;20485;-61
2023/08/19 09:47:50;;;;;;;10.20;9.30;;;;;;;;;;6157419;23;20538;-61
2023/08/19 09:50:17;;;;;;;9.57;8.83;;;;;;;;;;6157000;23;21010;-62
2023/08/19 09:52:53;;;;;;;10.83;9.60;;;;;;;;;;6157436;23;20414;-61
2023/08/19 09:55:22;;;;;;;9.43;8.87;;;;;;;;;;6167253;23;20479;-61
2023/08/19 09:57:49;;;;;;;10.17;9.37;;;;;;;;;;6157809;23;20442;-62
2023/08/19 10:00:16;;;;;;;10.23;9.33;;;;;;;;;;6157143;23;20411;-62
2023/08/19 10:02:44;;;;;;;10.40;9.60;;;;;;;;;;6157313;23;20494;-62
2023/08/19 10:05:11;;;;;;;10.43;9.17;;;;;;;;;;6157356;23;20498;-62
2023/08/19 10:07:40;;;;;;;10.10;9.40;;;;;;;;;;6157654;23;20950;-62
2023/08/19 10:10:08;;;;;;;9.80;9.00;;;;;;;;;;6157302;23;20431;-62
2023/08/19 10:12:41;;;;;;;10.03;9.23;;;;;;;;;;6157274;23;20751;-63
2023/08/19 10:15:09;;;;;;;11.77;10.90;;;;;;;;;;6167129;23;20478;-62
2023/08/19 10:17:39;;;;;;;9.97;9.27;;;;;;;;;;6157211;23;20519;-62
2023/08/19 10:20:10;;;;;;;9.57;8.87;;;;;;;;;;6157190;23;20407;-62
2023/08/19 10:22:38;;;;;;;8.67;8.17;;;;;;;;;;6167076;23;20395;-62
2023/08/19 10:25:05;;;;;;;10.83;10.03;;;;;;;;;;6157162;23;20498;-62
2023/08/19 10:27:32;;;;;;;9.63;9.03;;;;;;;;;;6157322;23;20490;-62
2023/08/19 10:29:59;;;;;;;10.30;9.60;;;;;;;;;;6157253;23;20493;-62
2023/08/19 10:32:27;;;;;;;9.93;9.00;;;;;;;;;;6157331;23;20495;-62
2023/08/19 10:35:03;;;;;;;9.87;9.20;;;;;;;;;;6157055;23;20493;-62
2023/08/19 10:37:31;;;;;;;9.43;8.73;;;;;;;;;;6166665;23;20394;-62
2023/08/19 10:40:08;;;;;;;9.47;8.67;;;;;;;;;;6157083;23;20705;-62
2023/08/19 10:42:35;;;;;;;9.53;8.70;;;;;;;;;;6166907;23;20395;-62
2023/08/19 10:45:02;;;;;;;8.07;7.57;;;;;;;;;;6156974;23;20808;-62
2023/08/19 10:47:31;;;;;;;7.73;7.23;;;;;;;;;;6156316;23;20411;-62
2023/08/19 10:50:04;;;;;;;8.60;8.00;;;;;;;;;;6156680;23;20517;-62
2023/08/19 10:52:32;;;;;;;8.10;7.50;;;;;;;;;;6166765;23;20425;-63
2023/08/19 10:55:00;;;;;;;8.80;8.20;;;;;;;;;;6156917;23;20403;-62
2023/08/19 10:57:27;;;;;;;7.67;7.20;;;;;;;;;;6156910;23;20410;-62
2023/08/19 10:59:56;;;;;;;7.40;6.90;;;;;;;;;;6156915;23;20474;-62
2023/08/19 11:02:23;;;;;;;8.17;7.57;;;;;;;;;;6156500;23;20439;-62
2023/08/19 11:04:50;;;;;;;7.87;7.37;;;;;;;;;;6156941;23;20491;-62
2023/08/19 11:07:17;;;;;;;8.67;7.97;;;;;;;;;;6156900;23;20485;-63
2023/08/19 11:09:46;;;;;;;7.10;6.63;;;;;;;;;;6156877;23;20497;-62
2023/08/19 11:12:16;;;;;;;8.43;7.83;;;;;;;;;;6156745;23;20449;-62
2023/08/19 11:14:46;;;;;;;9.63;8.73;;;;;;;;;;6156571;23;20461;-62
2023/08/19 11:17:13;;;;;;;8.77;7.97;;;;;;;;;;6166543;23;20399;-62
2023/08/19 11:19:40;;;;;;;8.73;7.77;;;;;;;;;;6156340;23;20530;-62
2023/08/19 11:22:07;;;;;;;9.00;8.50;;;;;;;;;;6156860;23;20514;-62
2023/08/19 11:24:34;;;;;;;7.50;7.00;;;;;;;;;;6156771;23;20494;-62
2023/08/19 11:27:02;;;;;;;7.63;6.97;;;;;;;;;;6156740;23;20446;-62
2023/08/19 11:29:30;;;;;;;7.80;7.10;;;;;;;;;;6156557;23;20502;-62
2023/08/19 11:31:59;;;;;;;8.73;7.87;;;;;;;;;;6156574;23;20499;-62
2023/08/19 11:34:29;;;;;;;8.10;7.50;;;;;;;;;;6156492;23;20407;-62
2023/08/19 11:36:56;;;;;;;8.33;7.70;;;;;;;;;;6156373;23;20414;-62
2023/08/19 11:39:23;;;;;;;8.63;8.13;;;;;;;;;;6156415;23;20521;-62
2023/08/19 11:41:50;;;;;;;8.33;7.63;;;;;;;;;;6156608;23;20407;-62
2023/08/19 11:44:22;;;;;;;7.43;6.93;;;;;;;;;;6156610;23;20494;-63
2023/08/19 11:46:54;;;;;;;7.73;7.23;;;;;;;;;;6165797;23;20897;-62
2023/08/19 11:49:21;;;;;;;8.33;7.53;;;;;;;;;;6163924;23;20521;-62
2023/08/19 11:51:47;;;;;;;7.70;7.20;;;;;;;;;;6166106;23;20399;-62
2023/08/19 11:54:16;;;;;;;6.93;6.37;;;;;;;;;;6156653;23;20975;-62
2023/08/19 11:56:49;;;;;;;7.23;6.73;;;;;;;;;;6156641;23;20489;-63
2023/08/19 11:59:16;;;;;;;7.27;6.67;;;;;;;;;;6156350;23;20522;-62
2023/08/19 12:01:46;;;;;;;7.90;7.40;;;;;;;;;;6156336;23;20434;-62
2023/08/19 12:04:15;;;;;;;7.80;7.20;;;;;;;;;;6166505;23;20413;-62
2023/08/19 12:06:42;;;;;;;7.80;7.40;;;;;;;;;;6156259;23;20444;-62
2023/08/19 12:09:09;;;;;;;8.17;7.67;;;;;;;;;;6156171;23;20498;-62
2023/08/19 12:11:36;;;;;;;8.00;7.60;;;;;;;;;;6156352;23;20502;-62
2023/08/19 12:14:03;;;;;;;7.00;6.60;;;;;;;;;;6156331;23;20767;-62
2023/08/19 12:16:30;;;;;;;7.87;7.30;;;;;;;;;;6156069;23;20872;-62
2023/08/19 12:18:59;;;;;;;7.77;7.27;;;;;;;;;;6156193;23;20529;-63
2023/08/19 12:21:26;;;;;;;8.77;8.27;;;;;;;;;;6156215;23;20439;-62
2023/08/19 12:23:53;;;;;;;7.43;6.93;;;;;;;;;;6156113;23;20442;-62
2023/08/19 12:26:20;;;;;;;7.23;6.80;;;;;;;;;;6156257;23;20439;-62
2023/08/19 12:28:48;;;;;;;7.33;6.83;;;;;;;;;;6156522;23;20502;-62
2023/08/19 12:31:15;;;;;;;7.93;7.47;;;;;;;;;;6156305;23;20482;-62
2023/08/19 12:33:43;;;;;;;7.40;6.80;;;;;;;;;;6156266;23;20494;-62
2023/08/19 12:36:11;;;;;;;7.27;6.80;;;;;;;;;;6156095;23;20438;-62
2023/08/19 12:38:38;;;;;;;7.97;7.37;;;;;;;;;;6156056;23;20505;-62
2023/08/19 12:41:05;;;;;;;7.77;7.07;;;;;;;;;;6156098;23;20500;-63
2023/08/19 12:43:32;;;;;;;7.07;6.67;;;;;;;;;;6155726;23;20411;-62
2023/08/19 12:46:00;;;;;;;7.90;7.30;;;;;;;;;;6155977;23;20502;-62
2023/08/19 12:48:27;;;;;;;8.17;7.53;;;;;;;;;;6156007;23;20449;-62
2023/08/19 12:50:54;;;;;;;8.00;7.50;;;;;;;;;;6155579;23;20737;-62
2023/08/19 12:53:22;;;;;;;7.33;6.70;;;;;;;;;;6156030;23;20406;-63
2023/08/19 12:55:49;;;;;;;6.20;5.70;;;;;;;;;;6156019;23;20495;-62
2023/08/19 12:58:16;;;;;;;7.30;6.80;;;;;;;;;;6155981;23;20487;-62
2023/08/19 13:00:43;;;;;;;6.73;6.33;;;;;;;;;;6156047;23;20784;-62
2023/08/19 13:03:10;;;;;;;6.80;6.40;;;;;;;;;;6156049;23;20530;-62
2023/08/19 13:05:37;;;;;;;6.77;6.27;;;;;;;;;;6156023;23;20495;-62
2023/08/19 13:08:04;;;;;;;7.20;6.80;;;;;;;;;;6155994;23;20411;-62
2023/08/19 13:10:32;;;;;;;7.47;6.73;;;;;;;;;;6155949;23;20494;-62
2023/08/19 13:12:59;;;;;;;7.77;7.27;;;;;;;;;;6157965;23;20764;-62
2023/08/19 13:15:26;;;;;;;7.07;6.57;;;;;;;;;;6157683;23;20891;-62
2023/08/19 13:17:53;;;;;;;7.03;6.43;;;;;;;;;;6158004;23;20443;-62
2023/08/19 13:20:22;;;;;;;6.73;6.13;;;;;;;;;;6157935;23;20526;-62
2023/08/19 13:22:49;;;;;;;6.93;6.37;;;;;;;;;;6157768;23;20881;-62
2023/08/19 13:25:16;;;;;;;7.30;6.80;;;;;;;;;;6157998;23;20496;-62
2023/08/19 13:27:44;;;;;;;7.10;6.63;;;;;;;;;;6157947;23;20407;-63
2023/08/19 13:30:13;;;;;;;7.33;6.70;;;;;;;;;;6157724;23;20445;-63
2023/08/19 13:32:40;;;;;;;6.50;6.10;;;;;;;;;;6157704;23;20484;-63
2023/08/19 13:35:07;;;;;;;7.77;7.27;;;;;;;;;;6157705;23;20490;-63
2023/08/19 13:37:34;;;;;;;6.50;6.10;;;;;;;;;;6158070;23;20696;-63
2023/08/19 13:40:04;;;;;;;7.53;6.80;;;;;;;;;;6157514;23;20525;-63
2023/08/19 13:42:31;;;;;;;6.97;6.47;;;;;;;;;;6157181;23;20927;-62
2023/08/19 13:45:00;;;;;;;7.07;6.57;;;;;;;;;;6157745;23;20417;-62
2023/08/19 13:47:26;;;;;;;6.40;5.90;;;;;;;;;;6157584;23;20486;-63
2023/08/19 13:49:54;;;;;;;6.70;6.20;;;;;;;;;;6157332;23;20525;-63
2023/08/19 13:52:38;;;;;;;6.27;5.80;;;;;;;;;;6157182;23;20928;-62
2023/08/19 13:55:06;;;;;;;6.90;6.50;;;;;;;;;;6157606;23;20410;-62
2023/08/19 13:57:33;;;;;;;6.20;5.90;;;;;;;;;;6157415;23;20412;-63
2023/08/19 14:00:03;;;;;;;7.03;6.23;;;;;;;;;;6157452;23;20445;-62
2023/08/19 14:02:30;;;;;;;6.67;6.27;;;;;;;;;;6167229;23;20418;-62
2023/08/19 14:04:57;;;;;;;6.80;6.30;;;;;;;;;;6157539;23;20496;-62
2023/08/19 14:07:24;;;;;;;6.70;6.23;;;;;;;;;;6157570;23;20731;-62
2023/08/19 14:09:51;;;;;;;6.80;6.50;;;;;;;;;;6157401;23;20407;-62
2023/08/19 14:12:18;;;;;;;6.10;5.70;;;;;;;;;;6157546;23;20492;-63
2023/08/19 14:14:45;;;;;;;6.57;6.23;;;;;;;;;;6157438;23;20407;-64
2023/08/19 14:17:13;;;;;;;6.33;5.87;;;;;;;;;;6157519;23;20489;-63
2023/08/19 14:19:40;;;;;;;7.00;6.57;;;;;;;;;;6157211;23;20526;-62
2023/08/19 14:22:08;;;;;;;5.87;5.57;;;;;;;;;;6157385;23;20776;-62
2023/08/19 14:24:34;;;;;;;5.90;5.50;;;;;;;;;;6157357;23;20406;-62
2023/08/19 14:27:03;;;;;;;6.10;5.80;;;;;;;;;;6157239;23;20781;-62
2023/08/19 14:29:30;;;;;;;6.40;6.00;;;;;;;;;;6157095;23;20810;-62
2023/08/19 14:31:57;;;;;;;6.90;6.33;;;;;;;;;;6157261;23;20411;-62
2023/08/19 14:34:25;;;;;;;5.87;5.53;;;;;;;;;;6157249;23;20488;-62